首页
METAR-TAF:

METAR-TAF

机场 :

波普拉德, 斯洛伐克

纬度: 49-04N, 经度: 020-15E, 海拔: 694米

当前天气观测

该预报发布于35分钟前的07:38 UTC
风速4节,风向东转东北
温度 0°C
湿度 100%
气压 993 hPa
能見度: 0700
多云层高于200英尺
阴天层高于1100英尺

METAR: LZTT 130738Z 06004KT 0700 R27/1400D SN BKN002 OVC011 00/M00 Q0993

时间: 09:13 (08:13 UTC)

预报

该预报发布于3小时和13分钟前的05:00 UTC
预报有效从13日的 06点(UTC)到 14日的 06点(UTC)
风速2节,风向多变
能見度: 6000
少量云层高于400英尺
阴天层高于2000英尺
小雪
短暂存在
从 13日的 06点(UTC)到 13日的 12点(UTC)
能見度: 2400
小雪, 轻雾
几率 40% :
短暂存在
从 13日的 06点(UTC)到 13日的 12点(UTC)
能見度: 1200
多云层高于200英尺
阴天层高于1400英尺
雪, 轻雾
短暂存在
从 13日的 09点(UTC)到 13日的 22点(UTC)
风速5节,风向西南
能见度10公里或以上
阴天层高于3000英尺
成为
从 13日的 12点(UTC)到 13日的 14点(UTC)
短暂存在
从 13日的 18点(UTC)到 14日的 00点(UTC)
小雪, 雨
短暂存在
从 14日的 00点(UTC)到 14日的 06点(UTC)
能見度: 1400
散云层高于200英尺
多云层高于1300英尺
碎片雾

TAF: LZTT 130500Z 1306/1406 VRB02KT 6000 -SN FEW004 OVC020 TEMPO 1306/1312 2400 -SN BR PROB40 TEMPO 1306/1312 1200 SN BR BKN002 OVC014 TEMPO 1309/1322 23005KT 9999 OVC030 BECMG 1312/1314 NSW TEMPO 1318/1400 -SNRA TEMPO 1400/1406 1400 BCFG SCT002 BKN013

超过4000个机场的气象观测和天气预报(METAR&TAF报告)。

可查询的气象台以黄色和红色小点在地图上表示。

将鼠标移到小点上方,可查看气象台名称。

然后点击查看天气观测和预报。

如需切换地图:点击带黑十字的绿色按钮放大地图;点击带横线的绿色按钮缩小地图;或者点击绿色箭头查看邻近地区的地图。


METAR-TAF: